Time;durP1;ratioP1;P1;durP2;ratioP2;P2;SDS_P1;SDS_P2;PMS_P1;PMS_P2;Temp;Humidity;BMP_temperature;BMP_pressure;BME280_temperature;BME280_humidity;BME280_pressure;Samples;Min_cycle;Max_cycle;Signal;HPM_P1;HPM_P2
2023/07/18 00:00:32;;;;;;;;;;;;;;;24.05;64.10;100670.06;7401483;19;1503;-77
2023/07/18 00:03:00;;;;;;;;;;;;;;;24.09;64.58;100681.38;7402039;19;1364;-76
2023/07/18 00:05:29;;;;;;;;;;;;;;;24.12;64.98;100672.94;7399883;19;1497;-77
2023/07/18 00:07:57;;;;;;;;;;;;;;;24.12;65.04;100664.81;7403334;19;1108;-77
2023/07/18 00:10:26;;;;;;;;;;;;;;;24.02;65.08;100652.34;7399278;19;1262;-77
2023/07/18 00:12:54;;;;;;;;;;;;;;;24.14;65.02;100652.81;7400680;19;1577;-76
2023/07/18 00:15:25;;;;;;;;;;;;;;;24.11;65.24;100658.56;7398896;19;1839;-77
2023/07/18 00:17:53;;;;;;;;;;;;;;;24.12;65.20;100664.81;7401834;19;1222;-77
2023/07/18 00:20:23;;;;;;;;;;;;;;;24.08;64.76;100642.72;7402285;19;1526;-77
2023/07/18 00:22:52;;;;;;;;;;;;;;;24.06;65.29;100639.34;7401773;19;1586;-77
2023/07/18 00:25:21;;;;;;;;;;;;;;;24.00;65.23;100634.63;7402131;19;1172;-77
2023/07/18 00:27:50;;;;;;;;;;;;;;;24.06;65.45;100650.13;7401360;19;1118;-76
2023/07/18 00:30:20;;;;;;;;;;;;;;;24.02;65.57;100643.41;7400977;19;1272;-76
2023/07/18 00:32:51;;;;;;;;;;;;;;;24.09;65.57;100632.75;7398046;19;1417;-77
2023/07/18 00:35:19;;;;;;;;;;;;;;;24.05;64.21;100636.81;7400073;19;1841;-76
2023/07/18 00:37:48;;;;;;;;;;;;;;;23.72;63.69;100586.38;7402362;19;1026;-76
2023/07/18 00:40:16;;;;;;;;;;;;;;;23.98;64.22;100637.50;7400747;19;1553;-77
2023/07/18 00:42:47;;;;;;;;;;;;;;;23.94;65.00;100646.94;7400217;19;1547;-78
2023/07/18 00:45:16;;;;;;;;;;;;;;;24.03;64.85;100634.25;7401064;19;1195;-77
2023/07/18 00:47:45;;;;;;;;;;;;;;;24.04;64.85;100630.56;7398953;19;1610;-76
2023/07/18 00:50:17;;;;;;;;;;;;;;;23.93;65.19;100634.44;7402202;19;1502;-76
2023/07/18 00:52:47;;;;;;;;;;;;;;;24.00;64.82;100629.22;7400396;19;1512;-77
2023/07/18 00:55:16;;;;;;;;;;;;;;;24.02;64.77;100625.31;7399945;19;1873;-76
2023/07/18 00:57:45;;;;;;;;;;;;;;;23.94;65.16;100621.81;7400340;19;1564;-76
2023/07/18 01:00:14;;;;;;;;;;;;;;;23.97;65.24;100630.41;7399647;19;1235;-77
2023/07/18 01:02:43;;;;;;;;;;;;;;;24.05;65.13;100636.81;7399925;19;1512;-77
2023/07/18 01:05:12;;;;;;;;;;;;;;;24.00;65.48;100624.66;7400296;19;1629;-76
2023/07/18 01:07:44;;;;;;;;;;;;;;;24.09;65.19;100638.13;7400833;19;1227;-76
2023/07/18 01:10:16;;;;;;;;;;;;;;;23.97;65.69;100635.81;7398598;19;1570;-76
2023/07/18 01:12:44;;;;;;;;;;;;;;;23.87;64.38;100645.09;7400210;19;1465;-76
2023/07/18 01:15:13;;;;;;;;;;;;;;;23.78;64.33;100630.78;7398819;19;1842;-77
2023/07/18 01:17:43;;;;;;;;;;;;;;;23.80;64.80;100635.00;7399853;19;1213;-75
2023/07/18 01:20:15;;;;;;;;;;;;;;;23.95;64.59;100637.00;7399921;19;1166;-75
2023/07/18 01:22:46;;;;;;;;;;;;;;;23.92;64.61;100637.34;7400298;19;1197;-76
2023/07/18 01:25:16;;;;;;;;;;;;;;;23.83;65.15;100617.59;7400393;19;954;-76
2023/07/18 01:27:44;;;;;;;;;;;;;;;23.93;65.12;100622.81;7400206;19;1424;-76
2023/07/18 01:30:13;;;;;;;;;;;;;;;23.90;64.76;100624.00;7399118;19;1559;-76
2023/07/18 01:32:42;;;;;;;;;;;;;;;23.95;64.64;100628.88;7398796;19;1472;-76
2023/07/18 01:35:11;;;;;;;;;;;;;;;23.87;64.57;100621.63;7398656;19;1854;-76
2023/07/18 01:37:39;;;;;;;;;;;;;;;23.88;64.99;100622.50;7399168;19;1240;-76
2023/07/18 01:40:12;;;;;;;;;;;;;;;23.87;65.01;100631.59;7399092;19;1257;-76
2023/07/18 01:42:40;;;;;;;;;;;;;;;23.94;65.17;100619.13;7398364;19;1253;-76
2023/07/18 01:45:09;;;;;;;;;;;;;;;23.95;65.28;100642.38;7398475;19;1564;-76
2023/07/18 01:47:38;;;;;;;;;;;;;;;23.90;65.33;100629.41;7398698;19;1369;-76
2023/07/18 01:50:07;;;;;;;;;;;;;;;23.86;64.14;100638.03;7399263;19;1493;-76
2023/07/18 01:52:36;;;;;;;;;;;;;;;23.79;63.58;100633.28;7396106;19;1482;-76
2023/07/18 01:55:06;;;;;;;;;;;;;;;23.81;64.52;100643.91;7397981;19;1845;-78
2023/07/18 01:57:45;;;;;;;;;;;;;;;23.86;64.59;100657.78;7398111;19;1577;-76
2023/07/18 02:00:17;;;;;;;;;;;;;;;23.82;64.56;100641.06;7397665;19;1396;-76
2023/07/18 02:02:45;;;;;;;;;;;;;;;23.81;64.71;100654.72;7398916;19;1469;-76
2023/07/18 02:05:14;;;;;;;;;;;;;;;23.80;64.82;100656.59;7398699;19;1625;-76
2023/07/18 02:07:43;;;;;;;;;;;;;;;23.87;64.60;100648.63;7399253;19;1112;-75
2023/07/18 02:10:11;;;;;;;;;;;;;;;23.82;64.64;100638.34;7396105;19;1249;-76
2023/07/18 02:12:42;;;;;;;;;;;;;;;23.74;64.94;100646.44;7398152;19;1566;-76
2023/07/18 02:15:13;;;;;;;;;;;;;;;23.81;64.61;100644.78;7394394;19;1865;-75
2023/07/18 02:17:42;;;;;;;;;;;;;;;23.82;64.83;100635.66;7398103;19;1527;-75
2023/07/18 02:20:11;;;;;;;;;;;;;;;23.80;64.79;100624.19;7398084;19;1516;-76
2023/07/18 02:22:40;;;;;;;;;;;;;;;23.79;65.18;100627.88;7397271;19;1162;-75
2023/07/18 02:25:09;;;;;;;;;;;;;;;23.82;65.03;100622.16;7398278;19;1097;-75
2023/07/18 02:27:38;;;;;;;;;;;;;;;23.74;63.96;100616.75;7397144;19;1418;-75
2023/07/18 02:30:11;;;;;;;;;;;;;;;23.75;63.37;100631.91;7396184;19;1602;-76
2023/07/18 02:32:39;;;;;;;;;;;;;;;23.78;64.00;100615.41;7397338;19;1441;-76
2023/07/18 02:35:08;;;;;;;;;;;;;;;23.70;64.53;100611.84;7396914;19;1846;-76
2023/07/18 02:37:36;;;;;;;;;;;;;;;23.80;64.46;100628.75;7397757;19;1227;-76
2023/07/18 02:40:08;;;;;;;;;;;;;;;23.84;64.56;100640.06;7397255;19;1619;-76
2023/07/18 02:42:37;;;;;;;;;;;;;;;23.80;64.45;100635.00;7396103;19;1478;-76
2023/07/18 02:45:06;;;;;;;;;;;;;;;23.84;64.35;100629.25;7395354;19;1506;-75
2023/07/18 02:47:37;;;;;;;;;;;;;;;23.85;64.15;100631.75;7397258;19;1333;-76
2023/07/18 02:50:05;;;;;;;;;;;;;;;23.80;64.39;100644.94;7397033;19;1293;-76
2023/07/18 02:52:34;;;;;;;;;;;;;;;23.78;64.17;100628.06;7396520;19;1488;-76
2023/07/18 02:55:03;;;;;;;;;;;;;;;23.85;64.34;100633.63;7396818;19;1845;-73
2023/07/18 02:57:31;;;;;;;;;;;;;;;23.73;64.61;100630.41;7397190;19;1526;-74
2023/07/18 02:59:59;;;;;;;;;;;;;;;23.92;65.20;100648.16;7395043;19;1261;-73
2023/07/18 03:02:28;;;;;;;;;;;;;;;24.19;64.13;100625.28;7395592;19;1299;-72
2023/07/18 03:04:59;;;;;;;;;;;;;;;24.32;63.60;100627.44;7396258;19;1587;-73
2023/07/18 03:07:28;;;;;;;;;;;;;;;24.51;61.85;100623.50;7395530;19;1272;-73
2023/07/18 03:09:56;;;;;;;;;;;;;;;24.72;61.11;100612.09;7394244;19;1513;-73
2023/07/18 03:12:25;;;;;;;;;;;;;;;24.61;60.77;100616.88;7396411;19;1472;-73
2023/07/18 03:14:53;;;;;;;;;;;;;;;24.58;61.25;100627.22;7395708;19;1583;-72
2023/07/18 03:17:23;;;;;;;;;;;;;;;24.63;59.82;100623.97;6874157;19;10000189;-73
2023/07/18 03:19:51;;;;;;;;;;;;;;;24.60;60.60;100614.34;7390529;19;1615;-72
2023/07/18 03:22:22;;;;;;;;;;;;;;;24.58;59.60;100628.03;7389451;19;1498;-72
2023/07/18 03:24:51;;;;;;;;;;;;;;;24.56;59.22;100608.44;7389120;19;1451;-73
2023/07/18 03:27:19;;;;;;;;;;;;;;;24.58;59.61;100630.75;7394275;19;1503;-72
2023/07/18 03:29:48;;;;;;;;;;;;;;;24.59;59.55;100621.63;7396598;19;1567;-72
2023/07/18 03:32:16;;;;;;;;;;;;;;;24.71;58.57;100622.09;7394454;19;1590;-72
2023/07/18 03:34:44;;;;;;;;;;;;;;;24.91;58.16;100618.91;7397221;19;1509;-73
2023/07/18 03:37:12;;;;;;;;;;;;;;;24.90;58.67;100626.19;7395263;19;1854;-72
2023/07/18 03:39:43;;;;;;;;;;;;;;;24.76;57.95;100610.72;7396298;19;1415;-72
2023/07/18 03:42:11;;;;;;;;;;;;;;;24.67;57.64;100617.19;7398246;19;1640;-72
2023/07/18 03:44:40;;;;;;;;;;;;;;;24.73;57.45;100620.03;7396600;19;1494;-73
2023/07/18 03:47:08;;;;;;;;;;;;;;;24.64;57.35;100626.50;7397231;19;1402;-73
2023/07/18 03:49:37;;;;;;;;;;;;;;;24.73;57.31;100624.59;7396748;19;1409;-72
2023/07/18 03:52:05;;;;;;;;;;;;;;;24.94;56.98;100638.34;7392825;19;1495;-72
2023/07/18 03:54:35;;;;;;;;;;;;;;;24.79;56.98;100640.97;7396937;19;1417;-73
2023/07/18 03:57:06;;;;;;;;;;;;;;;24.74;56.65;100646.06;7393160;19;1855;-73
2023/07/18 03:59:34;;;;;;;;;;;;;;;24.79;56.97;100648.25;7392604;19;1489;-72
2023/07/18 04:02:03;;;;;;;;;;;;;;;24.77;57.83;100637.59;7395655;19;1655;-72
2023/07/18 04:04:33;;;;;;;;;;;;;;;24.74;57.83;100637.09;7394844;19;1433;-72
2023/07/18 04:07:02;;;;;;;;;;;;;;;24.71;57.66;100659.94;7394818;19;1421;-72
2023/07/18 04:09:30;;;;;;;;;;;;;;;24.83;56.97;100652.28;7394448;19;1576;-72
2023/07/18 04:11:59;;;;;;;;;;;;;;;24.76;58.04;100651.28;7395921;19;1448;-72
2023/07/18 04:14:30;;;;;;;;;;;;;;;24.76;57.48;100654.00;7396472;19;1533;-72
2023/07/18 04:16:58;;;;;;;;;;;;;;;24.91;57.00;100649.53;7392261;19;2145;-72
2023/07/18 04:19:26;;;;;;;;;;;;;;;24.79;57.99;100642.84;7394545;19;1422;-73
2023/07/18 04:21:54;;;;;;;;;;;;;;;24.74;57.75;100653.34;7395516;19;1471;-72
2023/07/18 04:24:23;;;;;;;;;;;;;;;24.75;57.70;100660.41;7394866;19;1158;-72
2023/07/18 04:26:51;;;;;;;;;;;;;;;24.83;58.11;100652.28;7395752;19;1479;-72
2023/07/18 04:29:19;;;;;;;;;;;;;;;24.83;58.43;100649.56;7399208;19;1211;-72
2023/07/18 04:31:50;;;;;;;;;;;;;;;24.82;57.65;100653.28;7393147;19;1431;-72
2023/07/18 04:34:18;;;;;;;;;;;;;;;24.75;58.23;100641.47;7399346;19;1168;-72
2023/07/18 04:36:47;;;;;;;;;;;;;;;24.88;58.25;100643.63;7397174;19;1869;-68
2023/07/18 04:39:15;;;;;;;;;;;;;;;25.00;58.18;100643.03;7397720;19;1404;-72
2023/07/18 04:41:43;;;;;;;;;;;;;;;25.07;58.03;100642.31;7398271;19;1494;-72
2023/07/18 04:44:12;;;;;;;;;;;;;;;24.98;58.29;100646.94;7398736;19;1844;-70
2023/07/18 04:46:41;;;;;;;;;;;;;;;25.18;58.04;100645.44;7400776;19;1416;-73
2023/07/18 04:49:11;;;;;;;;;;;;;;;25.10;57.90;100641.97;7395490;19;1525;-70
2023/07/18 04:51:40;;;;;;;;;;;;;;;25.22;58.18;100637.84;7398624;19;1341;-74
2023/07/18 04:54:08;;;;;;;;;;;;;;;24.98;55.88;100625.31;7395905;19;1162;-70
2023/07/18 04:56:37;;;;;;;;;;;;;;;24.81;55.19;100627.28;7393331;19;1847;-70
2023/07/18 04:59:05;;;;;;;;;;;;;;;24.83;55.60;100630.66;7396145;19;1471;-65
2023/07/18 05:01:36;;;;;;;;;;;;;;;25.05;56.09;100628.13;7397927;19;1578;-65
2023/07/18 05:04:05;;;;;;;;;;;;;;;25.15;56.46;100636.88;7400462;19;1527;-65
2023/07/18 05:06:36;;;;;;;;;;;;;;;25.21;56.48;100633.44;7401287;19;1095;-65
2023/07/18 05:09:05;;;;;;;;;;;;;;;25.27;56.55;100630.06;7400260;19;1414;-64
2023/07/18 05:11:33;;;;;;;;;;;;;;;25.38;56.29;100635.03;7398693;19;1507;-64
2023/07/18 05:14:02;;;;;;;;;;;;;;;25.42;57.03;100637.38;7397550;19;1245;-64
2023/07/18 05:16:30;;;;;;;;;;;;;;;25.15;57.14;100596.28;7394044;19;1858;-64
2023/07/18 05:18:58;;;;;;;;;;;;;;;25.50;57.09;100637.31;7396386;19;3275;-48
2023/07/18 05:21:27;;;;;;;;;;;;;;;25.46;57.97;100644.13;7395231;19;1562;-48
2023/07/18 05:23:57;;;;;;;;;;;;;;;25.63;57.85;100632.13;7397481;19;1199;-48
2023/07/18 05:26:26;;;;;;;;;;;;;;;25.51;58.14;100639.84;7393778;19;1485;-48
2023/07/18 05:28:54;;;;;;;;;;;;;;;25.51;59.12;100636.31;7395242;19;1256;-48
2023/07/18 05:31:22;;;;;;;;;;;;;;;25.48;59.21;100655.59;7398603;19;1548;-48
2023/07/18 05:33:51;;;;;;;;;;;;;;;25.36;59.44;100641.66;7399412;19;1124;-48
2023/07/18 05:36:19;;;;;;;;;;;;;;;25.36;59.47;100645.19;7398080;19;1937;-48
2023/07/18 05:38:47;;;;;;;;;;;;;;;25.47;58.84;100634.97;7398353;19;1207;-48
2023/07/18 05:41:18;;;;;;;;;;;;;;;25.53;58.79;100642.38;7394700;19;1655;-48
2023/07/18 05:43:46;;;;;;;;;;;;;;;25.51;58.90;100639.00;7394418;19;1483;-48
2023/07/18 05:46:15;;;;;;;;;;;;;;;25.48;59.17;100634.78;7395050;19;1516;-47
2023/07/18 05:48:43;;;;;;;;;;;;;;;25.52;59.16;100646.09;7394176;19;1629;-47
2023/07/18 05:51:11;;;;;;;;;;;;;;;25.66;59.35;100647.16;7391380;19;1274;-48
2023/07/18 05:53:39;;;;;;;;;;;;;;;25.79;60.48;100626.56;7393217;19;1535;-47
2023/07/18 05:56:08;;;;;;;;;;;;;;;25.47;62.21;100632.28;7397046;19;1869;-47
2023/07/18 05:58:39;;;;;;;;;;;;;;;24.96;61.06;100636.28;7398697;19;1210;-47
2023/07/18 06:01:14;;;;;;;;;;;;;;;24.53;60.75;100651.22;7397550;19;1078;-47
2023/07/18 06:03:42;;;;;;;;;;;;;;;24.24;61.51;100646.41;7399026;19;1054;-47
2023/07/18 06:06:11;;;;;;;;;;;;;;;24.36;61.32;100640.44;7397890;19;1932;-47
2023/07/18 06:08:39;;;;;;;;;;;;;;;24.31;61.18;100637.44;7397083;19;1549;-47
2023/07/18 06:11:07;;;;;;;;;;;;;;;24.19;61.39;100634.25;7396833;19;1865;-47
2023/07/18 06:13:36;;;;;;;;;;;;;;;24.29;61.23;100642.16;7396201;19;1342;-47
2023/07/18 06:16:07;;;;;;;;;;;;;;;24.38;60.47;100629.44;7394676;19;1559;-52
2023/07/18 06:18:35;;;;;;;;;;;;;;;24.27;60.97;100625.25;7394836;19;1407;-47
2023/07/18 06:21:03;;;;;;;;;;;;;;;24.16;61.07;100626.47;7394178;19;1468;-49
2023/07/18 06:23:32;;;;;;;;;;;;;;;24.28;61.23;100629.66;7391117;19;1330;-47
2023/07/18 06:26:00;;;;;;;;;;;;;;;24.24;61.90;100631.00;7392818;19;1488;-47
2023/07/18 06:28:28;;;;;;;;;;;;;;;24.17;62.94;100630.88;7392527;19;1497;-48
2023/07/18 06:30:57;;;;;;;;;;;;;;;24.22;62.58;100628.47;7393656;19;1861;-47
2023/07/18 06:33:28;;;;;;;;;;;;;;;24.09;64.79;100644.38;7392370;19;1459;-47
2023/07/18 06:35:57;;;;;;;;;;;;;;;24.21;65.06;100632.22;7391364;19;1184;-47
2023/07/18 06:38:26;;;;;;;;;;;;;;;24.30;65.51;100640.28;7391115;19;1841;-48
2023/07/18 06:40:55;;;;;;;;;;;;;;;24.36;65.28;100635.03;7390768;19;1628;-48
2023/07/18 06:43:24;;;;;;;;;;;;;;;24.42;64.72;100637.03;7391663;19;1485;-47
2023/07/18 06:45:53;;;;;;;;;;;;;;;24.52;64.79;100636.84;7389002;19;1884;-47
2023/07/18 06:48:21;;;;;;;;;;;;;;;24.39;65.44;100645.50;7388385;19;1718;-47
2023/07/18 06:50:53;;;;;;;;;;;;;;;24.43;65.60;100643.28;7389356;19;1819;-47
2023/07/18 06:53:22;;;;;;;;;;;;;;;24.38;65.99;100643.81;7391832;19;1793;-48
2023/07/18 06:55:51;;;;;;;;;;;;;;;24.30;66.08;100645.69;7391205;19;1020;-47
2023/07/18 06:58:19;;;;;;;;;;;;;;;24.40;66.04;100654.44;7390663;19;1861;-47
2023/07/18 07:00:49;;;;;;;;;;;;;;;24.37;65.94;100657.47;7390570;19;1799;-49
2023/07/18 07:03:17;;;;;;;;;;;;;;;24.36;66.12;100693.66;7392801;19;1743;-48
2023/07/18 07:05:46;;;;;;;;;;;;;;;24.28;64.85;100653.97;7394225;19;1405;-48
2023/07/18 07:08:19;;;;;;;;;;;;;;;24.06;65.08;100655.53;7397158;19;1123;-48
2023/07/18 07:10:47;;;;;;;;;;;;;;;24.25;65.00;100665.13;7397610;19;1949;-48
2023/07/18 07:13:19;;;;;;;;;;;;;;;24.15;65.84;100662.63;7392554;19;1618;-48
2023/07/18 07:15:47;;;;;;;;;;;;;;;24.12;65.91;100652.16;7395340;19;1389;-48
2023/07/18 07:18:15;;;;;;;;;;;;;;;24.25;65.76;100659.72;7393458;19;1850;-48
2023/07/18 07:20:44;;;;;;;;;;;;;;;24.26;65.82;100649.75;7393327;19;1672;-48
2023/07/18 07:23:12;;;;;;;;;;;;;;;24.25;66.16;100654.31;7395294;19;1417;-48
2023/07/18 07:25:45;;;;;;;;;;;;;;;24.22;66.54;100655.50;7396634;19;1069;-48
2023/07/18 07:28:13;;;;;;;;;;;;;;;24.22;66.45;100650.09;7395608;19;1870;-48
2023/07/18 07:30:42;;;;;;;;;;;;;;;24.26;66.55;100660.56;7396084;19;1837;-48
2023/07/18 07:33:10;;;;;;;;;;;;;;;24.26;66.71;100642.50;7396514;19;1380;-48
2023/07/18 07:35:39;;;;;;;;;;;;;;;24.14;67.41;100657.41;7396334;19;1417;-48
2023/07/18 07:38:08;;;;;;;;;;;;;;;24.16;67.45;100652.66;7394501;19;1838;-48
2023/07/18 07:40:36;;;;;;;;;;;;;;;24.16;67.47;100650.78;7392948;19;1936;-47
2023/07/18 07:43:07;;;;;;;;;;;;;;;24.13;66.29;100651.16;7395099;19;1810;-48
2023/07/18 07:45:35;;;;;;;;;;;;;;;24.16;65.17;100650.78;7395433;19;1320;-48
2023/07/18 07:48:03;;;;;;;;;;;;;;;24.11;65.64;100647.75;7395155;19;1004;-47
2023/07/18 07:50:32;;;;;;;;;;;;;;;24.15;66.15;100646.41;7394564;19;1911;-48
2023/07/18 07:53:01;;;;;;;;;;;;;;;24.15;66.32;100654.53;7395182;19;1829;-48
2023/07/18 07:55:30;;;;;;;;;;;;;;;24.17;66.84;100648.94;7395365;19;1161;-48
2023/07/18 07:57:58;;;;;;;;;;;;;;;24.34;66.55;100650.56;7394450;19;1857;-48
2023/07/18 08:00:29;;;;;;;;;;;;;;;24.15;66.97;100650.97;7394540;19;1734;-48
2023/07/18 08:02:57;;;;;;;;;;;;;;;24.21;67.04;100648.44;7396039;19;951;-47
2023/07/18 08:05:26;;;;;;;;;;;;;;;24.25;67.42;100654.31;7396141;19;1087;-48
2023/07/18 08:07:54;;;;;;;;;;;;;;;24.36;67.20;100658.50;7395636;19;1838;-48
2023/07/18 08:10:22;;;;;;;;;;;;;;;24.31;67.35;100647.38;7392513;19;1838;-48
2023/07/18 08:12:50;;;;;;;;;;;;;;;24.25;67.60;100639.97;7395044;19;1794;-48
2023/07/18 08:15:19;;;;;;;;;;;;;;;24.29;67.84;100646.69;7401815;19;1247;-47
2023/07/18 08:17:50;;;;;;;;;;;;;;;24.38;67.97;100649.22;7400662;19;1838;-48
2023/07/18 08:20:19;;;;;;;;;;;;;;;24.22;66.99;100636.59;7397110;19;1813;-48
2023/07/18 08:22:47;;;;;;;;;;;;;;;23.60;65.85;100552.66;7402297;19;1765;-47
2023/07/18 08:25:16;;;;;;;;;;;;;;;24.16;65.98;100649.97;7403583;19;1057;-48
2023/07/18 08:27:45;;;;;;;;;;;;;;;24.13;66.91;100653.84;7401505;19;1504;-48
2023/07/18 08:30:14;;;;;;;;;;;;;;;24.15;67.32;100632.91;7398568;19;1808;-48
2023/07/18 08:32:43;;;;;;;;;;;;;;;24.19;67.31;100634.25;7398752;19;1730;-48
2023/07/18 08:35:14;;;;;;;;;;;;;;;24.29;67.43;100634.06;7402786;19;1055;-48
2023/07/18 08:37:42;;;;;;;;;;;;;;;24.35;67.67;100638.75;7400391;19;1852;-47
2023/07/18 08:40:12;;;;;;;;;;;;;;;24.42;67.73;100644.31;7401586;19;1715;-47
2023/07/18 08:42:40;;;;;;;;;;;;;;;24.50;67.81;100636.19;7401837;19;1936;-47
2023/07/18 08:45:13;;;;;;;;;;;;;;;24.48;67.29;100649.00;7401190;19;1112;-47
2023/07/18 08:47:43;;;;;;;;;;;;;;;24.54;67.47;100644.81;7399296;19;1545;-48
2023/07/18 08:50:14;;;;;;;;;;;;;;;24.38;68.39;100637.56;7400791;19;1671;-47
2023/07/18 08:52:42;;;;;;;;;;;;;;;24.50;67.95;100641.59;7401266;19;1820;-47
2023/07/18 08:55:11;;;;;;;;;;;;;;;24.32;67.99;100627.44;7402046;19;1021;-48
2023/07/18 08:57:41;;;;;;;;;;;;;;;24.23;67.85;100637.41;7399978;19;1849;-47
2023/07/18 09:00:11;;;;;;;;;;;;;;;24.12;67.21;100645.91;7400980;19;1401;-47
2023/07/18 09:02:40;;;;;;;;;;;;;;;24.14;67.26;100636.63;7401139;19;1699;-47
2023/07/18 09:05:10;;;;;;;;;;;;;;;24.30;67.49;100638.44;7401378;19;1807;-47
2023/07/18 09:07:41;;;;;;;;;;;;;;;24.38;67.22;100626.75;7401715;19;1437;-47
2023/07/18 09:10:10;;;;;;;;;;;;;;;24.25;68.37;100629.16;7398455;19;1599;-47
2023/07/18 09:12:38;;;;;;;;;;;;;;;24.39;68.04;100623.00;7401142;19;1836;-47
2023/07/18 09:15:07;;;;;;;;;;;;;;;24.38;68.08;100632.16;7399696;19;1723;-47
2023/07/18 09:17:37;;;;;;;;;;;;;;;24.45;66.35;100616.91;7400378;19;1847;-47
2023/07/18 09:20:07;;;;;;;;;;;;;;;24.56;66.83;100646.31;7396827;19;1616;-47
2023/07/18 09:22:39;;;;;;;;;;;;;;;24.57;67.23;100620.97;7402175;19;1030;-47
2023/07/18 09:25:10;;;;;;;;;;;;;;;24.41;67.88;100615.56;7400682;19;1008;-47
2023/07/18 09:27:39;;;;;;;;;;;;;;;24.23;68.02;100618.50;7399470;19;1901;-47
2023/07/18 09:30:08;;;;;;;;;;;;;;;24.32;67.38;100612.06;7400214;19;1844;-47
2023/07/18 09:32:36;;;;;;;;;;;;;;;24.48;67.10;100604.94;7401358;19;1672;-47
2023/07/18 09:35:05;;;;;;;;;;;;;;;24.52;67.38;100614.41;7401249;19;962;-47
2023/07/18 09:37:34;;;;;;;;;;;;;;;24.31;67.88;100604.13;7400382;19;1857;-47
2023/07/18 09:40:03;;;;;;;;;;;;;;;24.26;67.85;100611.94;7398130;19;1953;-47
2023/07/18 09:42:34;;;;;;;;;;;;;;;24.29;67.30;100607.03;7398150;19;1401;-47
2023/07/18 09:45:03;;;;;;;;;;;;;;;24.56;66.97;100603.03;7397938;19;1979;-47
2023/07/18 09:47:31;;;;;;;;;;;;;;;24.26;67.69;100604.66;7399736;19;1420;-47
2023/07/18 09:49:59;;;;;;;;;;;;;;;24.30;67.97;100602.47;7398901;19;1191;-47
2023/07/18 09:52:29;;;;;;;;;;;;;;;24.37;66.51;100592.63;7399386;19;1655;-47
2023/07/18 09:54:58;;;;;;;;;;;;;;;24.24;67.50;100592.34;7400611;19;1019;-47
2023/07/18 09:57:27;;;;;;;;;;;;;;;24.36;67.27;100589.09;7398028;19;1937;-47
2023/07/18 10:00:00;;;;;;;;;;;;;;;24.41;67.24;100588.53;7398850;19;1408;-47
2023/07/18 10:02:29;;;;;;;;;;;;;;;24.21;67.80;100588.13;7399763;19;1690;-47
2023/07/18 10:04:57;;;;;;;;;;;;;;;24.34;66.74;100565.97;7401003;19;1004;-47
2023/07/18 10:07:26;;;;;;;;;;;;;;;24.35;67.36;100578.44;7399157;19;1968;-47
2023/07/18 10:09:54;;;;;;;;;;;;;;;24.26;67.69;100582.22;7396454;19;1955;-47
2023/07/18 10:12:23;;;;;;;;;;;;;;;24.46;67.11;100569.94;7396481;19;1776;-47
2023/07/18 10:14:52;;;;;;;;;;;;;;;24.52;66.15;100569.28;7393899;19;1433;-47
2023/07/18 10:17:31;;;;;;;;;;;;;;;24.56;66.21;100554.38;7398495;19;1737;-48
2023/07/18 10:19:59;;;;;;;;;;;;;;;24.54;66.81;100564.53;7393349;19;1440;-47
2023/07/18 10:22:28;;;;;;;;;;;;;;;24.50;67.32;100544.28;7394684;19;1180;-47
2023/07/18 10:25:00;;;;;;;;;;;;;;;24.55;67.28;100574.34;7397231;19;1517;-47
2023/07/18 10:27:37;;;;;;;;;;;;;;;24.51;67.04;100551.38;7396923;19;1507;-47
2023/07/18 10:30:06;;;;;;;;;;;;;;;24.58;67.32;100554.22;7396533;19;1612;-47
2023/07/18 10:32:37;;;;;;;;;;;;;;;24.63;67.46;100557.25;7397095;19;1575;-47
2023/07/18 10:35:10;;;;;;;;;;;;;;;24.43;67.83;100529.75;7396891;19;1369;-47
2023/07/18 10:37:39;;;;;;;;;;;;;;;24.55;67.44;100544.59;7398116;19;1835;-47
2023/07/18 10:40:08;;;;;;;;;;;;;;;24.54;67.51;100548.31;7395505;19;1591;-46
2023/07/18 10:42:37;;;;;;;;;;;;;;;24.60;68.08;100560.28;7396194;19;1705;-47
2023/07/18 10:45:07;;;;;;;;;;;;;;;24.69;68.51;100558.34;7395532;19;1789;-47
2023/07/18 10:47:38;;;;;;;;;;;;;;;24.70;68.40;100554.66;7398297;19;1766;-47
2023/07/18 10:50:09;;;;;;;;;;;;;;;24.70;67.93;100550.06;7397759;19;1413;-47
2023/07/18 10:52:37;;;;;;;;;;;;;;;24.83;67.89;100549.50;7396128;19;1194;-47
2023/07/18 10:55:07;;;;;;;;;;;;;;;24.79;68.65;100546.31;7396054;19;1536;-47
2023/07/18 10:57:37;;;;;;;;;;;;;;;24.78;68.38;100555.44;7395591;19;1741;-47
2023/07/18 11:00:07;;;;;;;;;;;;;;;24.82;68.86;100547.81;7392660;19;1838;-47
2023/07/18 11:02:41;;;;;;;;;;;;;;;24.77;68.36;100548.34;7393320;19;1410;-47
2023/07/18 11:05:11;;;;;;;;;;;;;;;24.71;68.82;100537.38;7387216;19;1513;-47
2023/07/18 11:07:41;;;;;;;;;;;;;;;24.71;68.96;100561.72;6780757;19;10000574;-48
2023/07/18 11:10:10;;;;;;;;;;;;;;;24.60;69.16;100534.09;7383361;19;1838;-49
2023/07/18 11:12:39;;;;;;;;;;;;;;;24.58;69.39;100541.53;7379544;19;1816;-49
2023/07/18 11:15:07;;;;;;;;;;;;;;;24.60;68.81;100539.50;7385053;19;1917;-49
2023/07/18 11:17:38;;;;;;;;;;;;;;;24.61;68.92;100535.78;7384224;19;1481;-49
2023/07/18 11:20:13;;;;;;;;;;;;;;;24.66;69.16;100543.34;7385696;19;1904;-50
2023/07/18 11:22:42;;;;;;;;;;;;;;;24.61;68.75;100522.25;7388187;19;1631;-48
2023/07/18 11:25:10;;;;;;;;;;;;;;;24.60;68.67;100528.66;7390145;19;1579;-48
2023/07/18 11:27:39;;;;;;;;;;;;;;;24.69;68.47;100528.63;7386057;19;1926;-48
2023/07/18 11:30:09;;;;;;;;;;;;;;;24.63;68.52;100515.81;7387972;19;1763;-48
2023/07/18 11:32:39;;;;;;;;;;;;;;;24.61;68.48;100519.56;7385559;19;1498;-48
2023/07/18 11:35:11;;;;;;;;;;;;;;;24.56;68.12;100513.84;7381103;19;1623;-48
2023/07/18 11:37:41;;;;;;;;;;;;;;;24.65;68.29;100524.59;7380314;19;1434;-42
2023/07/18 11:40:10;;;;;;;;;;;;;;;24.63;68.54;100510.41;7387168;19;1846;-42
2023/07/18 11:42:45;;;;;;;;;;;;;;;24.68;68.44;100513.44;7387671;19;1508;-42
2023/07/18 11:45:14;;;;;;;;;;;;;;;24.63;67.55;100503.16;7386705;19;1912;-44
2023/07/18 11:47:46;;;;;;;;;;;;;;;24.70;67.72;100506.81;7388010;19;1496;-41
2023/07/18 11:50:18;;;;;;;;;;;;;;;24.69;67.82;100498.88;7395910;19;1473;-48
2023/07/18 11:52:48;;;;;;;;;;;;;;;24.67;68.02;100509.03;7393848;19;1412;-48
2023/07/18 11:55:16;;;;;;;;;;;;;;;24.62;67.61;100498.75;7388306;19;1373;-49
2023/07/18 11:57:42;;;;;;;;;;;;;;;24.63;67.64;100486.06;7389684;19;1433;-41
2023/07/18 12:00:11;;;;;;;;;;;;;;;24.72;67.81;100501.22;7387937;19;1868;-42
2023/07/18 12:02:40;;;;;;;;;;;;;;;24.69;68.02;100496.16;7397047;19;995;-42
2023/07/18 12:05:08;;;;;;;;;;;;;;;24.76;67.68;100497.97;7396741;19;1814;-48
2023/07/18 12:07:40;;;;;;;;;;;;;;;24.71;67.38;100484.19;7390992;19;2280;-48
2023/07/18 12:10:10;;;;;;;;;;;;;;;24.74;67.45;100493.78;7394500;19;1534;-48
2023/07/18 12:12:39;;;;;;;;;;;;;;;24.73;67.82;100492.09;7393797;19;1573;-49
2023/07/18 12:15:08;;;;;;;;;;;;;;;24.69;67.88;100494.34;7394449;19;1400;-42
2023/07/18 12:17:36;;;;;;;;;;;;;;;24.64;67.62;100491.31;7394363;19;1797;-48
2023/07/18 12:20:04;;;;;;;;;;;;;;;24.64;67.58;100495.88;7390292;19;1850;-48
2023/07/18 12:22:33;;;;;;;;;;;;;;;24.63;67.81;100508.56;7396549;19;1477;-48
2023/07/18 12:25:04;;;;;;;;;;;;;;;24.64;67.75;100491.31;7393864;19;1492;-48
2023/07/18 12:27:32;;;;;;;;;;;;;;;24.71;67.54;100496.84;7397310;19;1681;-42
2023/07/18 12:30:01;;;;;;;;;;;;;;;24.77;67.33;100523.16;7396369;19;1215;-42
2023/07/18 12:32:29;;;;;;;;;;;;;;;24.78;67.14;100495.09;7398328;19;1135;-43
2023/07/18 12:34:57;;;;;;;;;;;;;;;24.76;67.34;100506.09;7396468;19;1291;-42
2023/07/18 12:37:26;;;;;;;;;;;;;;;24.80;67.22;100503.88;7396767;19;1393;-42
2023/07/18 12:39:54;;;;;;;;;;;;;;;24.77;66.96;100502.38;7395242;19;1864;-42
2023/07/18 12:42:25;;;;;;;;;;;;;;;24.71;67.34;100489.59;7398846;19;1548;-42
2023/07/18 12:44:53;;;;;;;;;;;;;;;24.70;67.32;100495.16;7398603;19;1544;-42
2023/07/18 12:47:22;;;;;;;;;;;;;;;24.76;67.66;100495.28;7397516;19;1683;-42
2023/07/18 12:49:50;;;;;;;;;;;;;;;24.74;67.38;100493.78;7397294;19;1218;-42
2023/07/18 12:52:18;;;;;;;;;;;;;;;24.76;67.22;100489.88;7397059;19;1536;-42
2023/07/18 12:54:47;;;;;;;;;;;;;;;24.80;68.15;100477.66;7396349;19;1477;-43